sensor_id;sensor_type;location;lat;lon;timestamp;temperature;humidity
35635;DHT22;21757;43.610;1.440;2022-10-16T00:00:45;17.50;99.90
35635;DHT22;21757;43.610;1.440;2022-10-16T00:03:12;17.50;99.90
35635;DHT22;21757;43.610;1.440;2022-10-16T00:05:39;17.50;99.90
35635;DHT22;21757;43.610;1.440;2022-10-16T00:08:05;17.50;99.90
35635;DHT22;21757;43.610;1.440;2022-10-16T00:10:31;17.50;99.90
35635;DHT22;21757;43.610;1.440;2022-10-16T00:12:57;17.50;99.90
35635;DHT22;21757;43.610;1.440;2022-10-16T00:15:23;17.50;99.90
35635;DHT22;21757;43.610;1.440;2022-10-16T00:17:48;17.50;99.90
35635;DHT22;21757;43.610;1.440;2022-10-16T00:20:14;17.50;99.90
35635;DHT22;21757;43.610;1.440;2022-10-16T00:22:40;17.50;99.90
35635;DHT22;21757;43.610;1.440;2022-10-16T00:25:06;17.50;99.90
35635;DHT22;21757;43.610;1.440;2022-10-16T00:27:32;17.50;99.90
35635;DHT22;21757;43.610;1.440;2022-10-16T00:29:58;17.50;99.90
35635;DHT22;21757;43.610;1.440;2022-10-16T00:32:24;17.50;99.90
35635;DHT22;21757;43.610;1.440;2022-10-16T00:34:49;17.60;99.90
35635;DHT22;21757;43.610;1.440;2022-10-16T00:37:15;17.50;99.90
35635;DHT22;21757;43.610;1.440;2022-10-16T00:39:41;17.60;99.90
35635;DHT22;21757;43.610;1.440;2022-10-16T00:42:06;17.60;99.90
35635;DHT22;21757;43.610;1.440;2022-10-16T00:44:54;17.60;99.90
35635;DHT22;21757;43.610;1.440;2022-10-16T00:47:35;17.50;99.90
35635;DHT22;21757;43.610;1.440;2022-10-16T00:52:36;17.50;99.90
35635;DHT22;21757;43.610;1.440;2022-10-16T00:55:06;17.50;99.90
35635;DHT22;21757;43.610;1.440;2022-10-16T00:57:32;17.50;99.90
35635;DHT22;21757;43.610;1.440;2022-10-16T00:59:57;17.60;99.90
35635;DHT22;21757;43.610;1.440;2022-10-16T01:02:24;17.60;99.90
35635;DHT22;21757;43.610;1.440;2022-10-16T01:04:51;17.60;99.90
35635;DHT22;21757;43.610;1.440;2022-10-16T01:10:49;17.70;99.90
35635;DHT22;21757;43.610;1.440;2022-10-16T01:13:25;17.70;99.90
35635;DHT22;21757;43.610;1.440;2022-10-16T01:15:56;17.70;99.90
35635;DHT22;21757;43.610;1.440;2022-10-16T01:18:42;17.70;99.90
35635;DHT22;21757;43.610;1.440;2022-10-16T01:21:19;17.70;99.90
35635;DHT22;21757;43.610;1.440;2022-10-16T01:26:44;17.70;99.90
35635;DHT22;21757;43.610;1.440;2022-10-16T01:29:20;17.70;99.90
35635;DHT22;21757;43.610;1.440;2022-10-16T01:31:50;17.80;99.90
35635;DHT22;21757;43.610;1.440;2022-10-16T01:34:25;17.80;99.90
35635;DHT22;21757;43.610;1.440;2022-10-16T01:36:57;17.80;99.90
35635;DHT22;21757;43.610;1.440;2022-10-16T01:39:29;17.80;99.90
35635;DHT22;21757;43.610;1.440;2022-10-16T01:42:01;17.80;99.90
35635;DHT22;21757;43.610;1.440;2022-10-16T01:44:32;17.80;99.90
35635;DHT22;21757;43.610;1.440;2022-10-16T01:46:59;17.90;99.90
35635;DHT22;21757;43.610;1.440;2022-10-16T01:49:28;17.90;99.90
35635;DHT22;21757;43.610;1.440;2022-10-16T01:51:56;17.90;99.90
35635;DHT22;21757;43.610;1.440;2022-10-16T01:54:26;17.90;99.90
35635;DHT22;21757;43.610;1.440;2022-10-16T01:56:55;18.00;99.90
35635;DHT22;21757;43.610;1.440;2022-10-16T01:59:25;18.00;99.90
35635;DHT22;21757;43.610;1.440;2022-10-16T02:01:55;17.90;99.90
35635;DHT22;21757;43.610;1.440;2022-10-16T02:04:39;18.00;99.90
35635;DHT22;21757;43.610;1.440;2022-10-16T02:07:08;18.00;99.90
35635;DHT22;21757;43.610;1.440;2022-10-16T02:09:34;18.00;99.90
35635;DHT22;21757;43.610;1.440;2022-10-16T02:12:06;18.00;99.90
35635;DHT22;21757;43.610;1.440;2022-10-16T02:14:33;18.00;99.90
35635;DHT22;21757;43.610;1.440;2022-10-16T02:16:59;17.90;99.90
35635;DHT22;21757;43.610;1.440;2022-10-16T02:19:24;17.90;99.90
35635;DHT22;21757;43.610;1.440;2022-10-16T02:21:55;17.90;99.90
35635;DHT22;21757;43.610;1.440;2022-10-16T02:24:52;17.90;99.90
35635;DHT22;21757;43.610;1.440;2022-10-16T02:30:07;17.80;99.90
35635;DHT22;21757;43.610;1.440;2022-10-16T02:32:35;17.80;99.90
35635;DHT22;21757;43.610;1.440;2022-10-16T02:35:02;17.80;99.90
35635;DHT22;21757;43.610;1.440;2022-10-16T02:37:29;17.80;99.90
35635;DHT22;21757;43.610;1.440;2022-10-16T02:39:57;17.80;99.90
35635;DHT22;21757;43.610;1.440;2022-10-16T02:42:29;17.80;99.90
35635;DHT22;21757;43.610;1.440;2022-10-16T02:44:55;17.80;99.90
35635;DHT22;21757;43.610;1.440;2022-10-16T02:47:20;17.80;99.90
35635;DHT22;21757;43.610;1.440;2022-10-16T02:49:46;17.80;99.90
35635;DHT22;21757;43.610;1.440;2022-10-16T02:52:12;17.80;99.90
35635;DHT22;21757;43.610;1.440;2022-10-16T02:54:37;17.80;99.90
35635;DHT22;21757;43.610;1.440;2022-10-16T02:57:03;17.80;99.90
35635;DHT22;21757;43.610;1.440;2022-10-16T02:59:28;17.80;99.90
35635;DHT22;21757;43.610;1.440;2022-10-16T03:01:54;17.80;99.90
35635;DHT22;21757;43.610;1.440;2022-10-16T03:04:20;17.80;99.90
35635;DHT22;21757;43.610;1.440;2022-10-16T03:06:45;17.70;99.90
35635;DHT22;21757;43.610;1.440;2022-10-16T03:09:11;17.70;99.90
35635;DHT22;21757;43.610;1.440;2022-10-16T03:11:37;17.70;99.90
35635;DHT22;21757;43.610;1.440;2022-10-16T03:14:02;17.80;99.90
35635;DHT22;21757;43.610;1.440;2022-10-16T03:16:28;17.70;99.90
35635;DHT22;21757;43.610;1.440;2022-10-16T03:18:54;17.70;99.90
35635;DHT22;21757;43.610;1.440;2022-10-16T03:21:19;17.80;99.90
35635;DHT22;21757;43.610;1.440;2022-10-16T03:23:45;17.80;99.90
35635;DHT22;21757;43.610;1.440;2022-10-16T03:26:12;17.80;99.90
35635;DHT22;21757;43.610;1.440;2022-10-16T03:28:37;17.80;99.90
35635;DHT22;21757;43.610;1.440;2022-10-16T03:31:03;17.80;99.90
35635;DHT22;21757;43.610;1.440;2022-10-16T03:33:28;17.80;99.90
35635;DHT22;21757;43.610;1.440;2022-10-16T03:35:55;17.80;99.90
35635;DHT22;21757;43.610;1.440;2022-10-16T03:38:21;17.90;99.90
35635;DHT22;21757;43.610;1.440;2022-10-16T03:40:47;17.90;99.90
35635;DHT22;21757;43.610;1.440;2022-10-16T03:43:12;17.90;99.90
35635;DHT22;21757;43.610;1.440;2022-10-16T03:45:39;17.80;99.90
35635;DHT22;21757;43.610;1.440;2022-10-16T03:48:05;17.80;99.90
35635;DHT22;21757;43.610;1.440;2022-10-16T03:50:31;17.90;99.90
35635;DHT22;21757;43.610;1.440;2022-10-16T03:52:56;17.90;99.90
35635;DHT22;21757;43.610;1.440;2022-10-16T03:55:22;18.00;99.90
35635;DHT22;21757;43.610;1.440;2022-10-16T03:57:48;18.00;99.90
35635;DHT22;21757;43.610;1.440;2022-10-16T04:00:13;18.00;99.90
35635;DHT22;21757;43.610;1.440;2022-10-16T04:02:39;18.10;99.90
35635;DHT22;21757;43.610;1.440;2022-10-16T04:05:05;18.10;99.90
35635;DHT22;21757;43.610;1.440;2022-10-16T04:07:31;18.10;99.90
35635;DHT22;21757;43.610;1.440;2022-10-16T04:09:57;18.10;99.90
35635;DHT22;21757;43.610;1.440;2022-10-16T04:12:24;18.20;99.90
35635;DHT22;21757;43.610;1.440;2022-10-16T04:14:50;18.20;99.90
35635;DHT22;21757;43.610;1.440;2022-10-16T04:17:16;18.20;99.90
35635;DHT22;21757;43.610;1.440;2022-10-16T04:19:41;18.20;99.90
35635;DHT22;21757;43.610;1.440;2022-10-16T04:22:07;18.20;99.90
35635;DHT22;21757;43.610;1.440;2022-10-16T04:24:33;18.30;99.90
35635;DHT22;21757;43.610;1.440;2022-10-16T04:26:58;18.30;99.90
35635;DHT22;21757;43.610;1.440;2022-10-16T04:29:24;18.30;99.90
35635;DHT22;21757;43.610;1.440;2022-10-16T04:31:50;18.20;99.90
35635;DHT22;21757;43.610;1.440;2022-10-16T04:34:15;18.30;99.90
35635;DHT22;21757;43.610;1.440;2022-10-16T04:36:41;18.30;99.90
35635;DHT22;21757;43.610;1.440;2022-10-16T04:39:06;18.30;99.90
35635;DHT22;21757;43.610;1.440;2022-10-16T04:41:32;18.20;99.90
35635;DHT22;21757;43.610;1.440;2022-10-16T04:43:58;18.20;99.90
35635;DHT22;21757;43.610;1.440;2022-10-16T04:46:23;18.30;99.90
35635;DHT22;21757;43.610;1.440;2022-10-16T04:48:49;18.30;99.90
35635;DHT22;21757;43.610;1.440;2022-10-16T04:51:15;18.30;99.90
35635;DHT22;21757;43.610;1.440;2022-10-16T04:53:40;18.30;99.90
35635;DHT22;21757;43.610;1.440;2022-10-16T04:56:06;18.40;99.90
35635;DHT22;21757;43.610;1.440;2022-10-16T04:58:32;18.40;99.90
35635;DHT22;21757;43.610;1.440;2022-10-16T05:00:58;18.40;99.90
35635;DHT22;21757;43.610;1.440;2022-10-16T05:03:24;18.40;99.90
35635;DHT22;21757;43.610;1.440;2022-10-16T05:05:50;18.40;99.90
35635;DHT22;21757;43.610;1.440;2022-10-16T05:08:16;18.40;99.90
35635;DHT22;21757;43.610;1.440;2022-10-16T05:10:42;18.40;99.90
35635;DHT22;21757;43.610;1.440;2022-10-16T05:13:09;18.40;99.90
35635;DHT22;21757;43.610;1.440;2022-10-16T05:15:34;18.40;99.90
35635;DHT22;21757;43.610;1.440;2022-10-16T05:18:00;18.50;99.90
35635;DHT22;21757;43.610;1.440;2022-10-16T05:20:25;18.40;99.90
35635;DHT22;21757;43.610;1.440;2022-10-16T05:22:51;18.40;99.90
35635;DHT22;21757;43.610;1.440;2022-10-16T05:25:17;18.50;99.90
35635;DHT22;21757;43.610;1.440;2022-10-16T05:27:46;18.40;99.90
35635;DHT22;21757;43.610;1.440;2022-10-16T05:30:12;18.40;99.90
35635;DHT22;21757;43.610;1.440;2022-10-16T05:32:37;18.50;99.90
35635;DHT22;21757;43.610;1.440;2022-10-16T05:35:03;18.50;99.90
35635;DHT22;21757;43.610;1.440;2022-10-16T05:37:29;18.50;99.90
35635;DHT22;21757;43.610;1.440;2022-10-16T05:39:55;18.50;99.90
35635;DHT22;21757;43.610;1.440;2022-10-16T05:42:20;18.50;99.90
35635;DHT22;21757;43.610;1.440;2022-10-16T05:44:46;18.50;99.90
35635;DHT22;21757;43.610;1.440;2022-10-16T05:47:13;18.50;99.90
35635;DHT22;21757;43.610;1.440;2022-10-16T05:49:39;18.50;99.90
35635;DHT22;21757;43.610;1.440;2022-10-16T05:52:05;18.50;99.90
35635;DHT22;21757;43.610;1.440;2022-10-16T05:54:30;18.50;99.90
35635;DHT22;21757;43.610;1.440;2022-10-16T05:56:57;18.50;99.90
35635;DHT22;21757;43.610;1.440;2022-10-16T05:59:22;18.60;99.90
35635;DHT22;21757;43.610;1.440;2022-10-16T06:01:48;18.60;99.90
35635;DHT22;21757;43.610;1.440;2022-10-16T06:04:14;18.50;99.90
35635;DHT22;21757;43.610;1.440;2022-10-16T06:06:39;18.50;99.90
35635;DHT22;21757;43.610;1.440;2022-10-16T06:09:05;18.60;99.90
35635;DHT22;21757;43.610;1.440;2022-10-16T06:11:32;18.60;99.90
35635;DHT22;21757;43.610;1.440;2022-10-16T06:14:00;18.60;99.90
35635;DHT22;21757;43.610;1.440;2022-10-16T06:16:28;18.60;99.90
35635;DHT22;21757;43.610;1.440;2022-10-16T06:18:55;18.50;99.90
35635;DHT22;21757;43.610;1.440;2022-10-16T06:21:26;18.60;99.90
35635;DHT22;21757;43.610;1.440;2022-10-16T06:23:53;18.60;99.90
35635;DHT22;21757;43.610;1.440;2022-10-16T06:26:22;18.60;99.90
35635;DHT22;21757;43.610;1.440;2022-10-16T06:28:48;18.70;99.90
35635;DHT22;21757;43.610;1.440;2022-10-16T06:31:14;18.70;99.90
35635;DHT22;21757;43.610;1.440;2022-10-16T06:33:40;18.80;99.90
35635;DHT22;21757;43.610;1.440;2022-10-16T06:36:09;18.80;99.90
35635;DHT22;21757;43.610;1.440;2022-10-16T06:38:35;18.90;99.90
35635;DHT22;21757;43.610;1.440;2022-10-16T06:41:01;18.90;99.90
35635;DHT22;21757;43.610;1.440;2022-10-16T06:43:29;18.90;99.90
35635;DHT22;21757;43.610;1.440;2022-10-16T06:45:59;18.90;99.90
35635;DHT22;21757;43.610;1.440;2022-10-16T06:48:25;18.90;99.90
35635;DHT22;21757;43.610;1.440;2022-10-16T06:50:59;18.90;99.90
35635;DHT22;21757;43.610;1.440;2022-10-16T06:53:26;19.00;99.90
35635;DHT22;21757;43.610;1.440;2022-10-16T06:55:52;19.00;99.90
35635;DHT22;21757;43.610;1.440;2022-10-16T06:58:18;19.10;99.90
35635;DHT22;21757;43.610;1.440;2022-10-16T07:00:44;19.10;99.90
35635;DHT22;21757;43.610;1.440;2022-10-16T07:03:09;19.20;99.90
35635;DHT22;21757;43.610;1.440;2022-10-16T07:05:42;19.20;99.90
35635;DHT22;21757;43.610;1.440;2022-10-16T07:08:08;19.20;99.90
35635;DHT22;21757;43.610;1.440;2022-10-16T07:10:35;19.30;99.90
35635;DHT22;21757;43.610;1.440;2022-10-16T07:13:01;19.20;99.90
35635;DHT22;21757;43.610;1.440;2022-10-16T07:15:27;19.20;99.90
35635;DHT22;21757;43.610;1.440;2022-10-16T07:17:53;19.30;99.90
35635;DHT22;21757;43.610;1.440;2022-10-16T07:20:19;19.30;99.90
35635;DHT22;21757;43.610;1.440;2022-10-16T07:22:44;19.40;99.90
35635;DHT22;21757;43.610;1.440;2022-10-16T07:25:10;19.50;99.90
35635;DHT22;21757;43.610;1.440;2022-10-16T07:27:37;19.50;99.90
35635;DHT22;21757;43.610;1.440;2022-10-16T07:30:03;19.60;99.90
35635;DHT22;21757;43.610;1.440;2022-10-16T07:32:29;19.60;99.90
35635;DHT22;21757;43.610;1.440;2022-10-16T07:34:55;19.70;99.90
35635;DHT22;21757;43.610;1.440;2022-10-16T07:37:21;19.70;99.90
35635;DHT22;21757;43.610;1.440;2022-10-16T07:39:47;19.80;99.90
35635;DHT22;21757;43.610;1.440;2022-10-16T07:42:13;19.90;99.90
35635;DHT22;21757;43.610;1.440;2022-10-16T07:44:38;20.00;99.90
35635;DHT22;21757;43.610;1.440;2022-10-16T07:47:05;20.10;99.90
35635;DHT22;21757;43.610;1.440;2022-10-16T07:49:31;20.20;99.90
35635;DHT22;21757;43.610;1.440;2022-10-16T07:51:56;20.20;99.90
35635;DHT22;21757;43.610;1.440;2022-10-16T07:54:22;20.30;99.90
35635;DHT22;21757;43.610;1.440;2022-10-16T07:56:48;20.40;99.90
35635;DHT22;21757;43.610;1.440;2022-10-16T07:59:13;20.60;99.90
35635;DHT22;21757;43.610;1.440;2022-10-16T08:01:39;20.60;99.90
35635;DHT22;21757;43.610;1.440;2022-10-16T08:04:05;20.70;99.90
35635;DHT22;21757;43.610;1.440;2022-10-16T08:06:36;20.70;99.90
35635;DHT22;21757;43.610;1.440;2022-10-16T08:09:02;20.80;99.90
35635;DHT22;21757;43.610;1.440;2022-10-16T08:11:28;20.60;99.90
35635;DHT22;21757;43.610;1.440;2022-10-16T08:13:54;20.60;99.90
35635;DHT22;21757;43.610;1.440;2022-10-16T08:16:23;20.50;99.90
35635;DHT22;21757;43.610;1.440;2022-10-16T08:18:48;20.50;99.90
35635;DHT22;21757;43.610;1.440;2022-10-16T08:21:18;20.40;99.90
35635;DHT22;21757;43.610;1.440;2022-10-16T08:23:44;20.50;99.90
35635;DHT22;21757;43.610;1.440;2022-10-16T08:26:11;20.60;99.90
35635;DHT22;21757;43.610;1.440;2022-10-16T08:28:37;20.60;99.90
35635;DHT22;21757;43.610;1.440;2022-10-16T08:31:10;20.60;99.90
35635;DHT22;21757;43.610;1.440;2022-10-16T08:33:36;20.60;99.90
35635;DHT22;21757;43.610;1.440;2022-10-16T08:36:04;20.60;99.90
35635;DHT22;21757;43.610;1.440;2022-10-16T08:38:30;20.60;99.90
35635;DHT22;21757;43.610;1.440;2022-10-16T08:49:11;20.80;99.90
35635;DHT22;21757;43.610;1.440;2022-10-16T08:51:39;20.90;99.90
35635;DHT22;21757;43.610;1.440;2022-10-16T08:54:06;20.90;99.90
35635;DHT22;21757;43.610;1.440;2022-10-16T08:56:37;21.00;99.90
35635;DHT22;21757;43.610;1.440;2022-10-16T08:59:09;21.00;99.90
35635;DHT22;21757;43.610;1.440;2022-10-16T09:01:40;21.10;99.90
35635;DHT22;21757;43.610;1.440;2022-10-16T09:07:18;21.20;99.90
35635;DHT22;21757;43.610;1.440;2022-10-16T09:10:35;21.20;99.90
35635;DHT22;21757;43.610;1.440;2022-10-16T09:12:37;21.30;99.90
35635;DHT22;21757;43.610;1.440;2022-10-16T09:18:23;21.50;99.90
35635;DHT22;21757;43.610;1.440;2022-10-16T09:21:10;21.50;99.90
35635;DHT22;21757;43.610;1.440;2022-10-16T09:23:38;21.50;99.90
35635;DHT22;21757;43.610;1.440;2022-10-16T09:26:05;21.60;99.90
35635;DHT22;21757;43.610;1.440;2022-10-16T09:28:35;21.70;99.90
35635;DHT22;21757;43.610;1.440;2022-10-16T09:31:00;21.70;99.90
35635;DHT22;21757;43.610;1.440;2022-10-16T09:33:35;21.80;99.90
35635;DHT22;21757;43.610;1.440;2022-10-16T09:36:03;21.80;99.90
35635;DHT22;21757;43.610;1.440;2022-10-16T09:38:32;21.90;99.90
35635;DHT22;21757;43.610;1.440;2022-10-16T09:41:00;22.00;99.90
35635;DHT22;21757;43.610;1.440;2022-10-16T09:44:02;22.10;99.90
35635;DHT22;21757;43.610;1.440;2022-10-16T09:46:29;22.20;99.90
35635;DHT22;21757;43.610;1.440;2022-10-16T09:48:58;22.10;99.90
35635;DHT22;21757;43.610;1.440;2022-10-16T09:51:34;22.20;99.90
35635;DHT22;21757;43.610;1.440;2022-10-16T09:56:36;22.30;99.90
35635;DHT22;21757;43.610;1.440;2022-10-16T09:59:17;22.40;99.90
35635;DHT22;21757;43.610;1.440;2022-10-16T10:01:53;22.40;99.90
35635;DHT22;21757;43.610;1.440;2022-10-16T10:04:22;22.50;99.90
35635;DHT22;21757;43.610;1.440;2022-10-16T10:06:54;22.50;99.90
35635;DHT22;21757;43.610;1.440;2022-10-16T10:09:27;22.70;99.90
35635;DHT22;21757;43.610;1.440;2022-10-16T10:11:59;22.70;99.90
35635;DHT22;21757;43.610;1.440;2022-10-16T10:14:37;22.80;99.90
35635;DHT22;21757;43.610;1.440;2022-10-16T10:22:45;22.80;99.90
35635;DHT22;21757;43.610;1.440;2022-10-16T10:25:15;22.90;99.90
35635;DHT22;21757;43.610;1.440;2022-10-16T10:33:35;23.20;99.90
35635;DHT22;21757;43.610;1.440;2022-10-16T10:38:59;23.20;99.90
35635;DHT22;21757;43.610;1.440;2022-10-16T10:44:07;23.30;99.90
35635;DHT22;21757;43.610;1.440;2022-10-16T10:46:56;23.30;99.90
35635;DHT22;21757;43.610;1.440;2022-10-16T10:55:09;23.50;99.90
35635;DHT22;21757;43.610;1.440;2022-10-16T11:00:47;23.50;99.90
35635;DHT22;21757;43.610;1.440;2022-10-16T11:09:18;23.70;99.90
35635;DHT22;21757;43.610;1.440;2022-10-16T11:17:33;23.90;99.90
35635;DHT22;21757;43.610;1.440;2022-10-16T11:25:27;24.00;99.90
35635;DHT22;21757;43.610;1.440;2022-10-16T11:30:55;24.00;99.90
35635;DHT22;21757;43.610;1.440;2022-10-16T11:36:06;24.10;99.90
35635;DHT22;21757;43.610;1.440;2022-10-16T11:38:35;24.20;99.90
35635;DHT22;21757;43.610;1.440;2022-10-16T11:41:14;24.20;99.90
35635;DHT22;21757;43.610;1.440;2022-10-16T11:43:46;24.40;99.90
35635;DHT22;21757;43.610;1.440;2022-10-16T11:46:20;24.30;99.90
35635;DHT22;21757;43.610;1.440;2022-10-16T11:49:08;24.40;99.90
